Map

Track Data

SID SEASON NUMBER BASIN SUBBASIN NAME ISO_TIME NATURE LAT LON WMO_WIND WMO_PRES WMO_AGENCY TRACK_TYPE DIST2LAND LANDFALL IFLAG USA_AGENCY USA_ATCF_ID USA_LAT USA_LON USA_RECORD USA_STATUS USA_WIND USA_PRES USA_SSHS USA_R34_NE USA_R34_SE USA_R34_SW USA_R34_NW USA_R50_NE USA_R50_SE USA_R50_SW USA_R50_NW USA_R64_NE USA_R64_SE USA_R64_SW USA_R64_NW USA_POCI USA_ROCI USA_RMW USA_EYE TOKYO_LAT TOKYO_LON TOKYO_GRADE TOKYO_WIND TOKYO_PRES TOKYO_R50_DIR TOKYO_R50_LONG TOKYO_R50_SHORT TOKYO_R30_DIR TOKYO_R30_LONG TOKYO_R30_SHORT TOKYO_LAND CMA_LAT CMA_LON CMA_CAT CMA_WIND CMA_PRES HKO_LAT HKO_LON HKO_CAT HKO_WIND HKO_PRES NEWDELHI_LAT NEWDELHI_LON NEWDELHI_GRADE NEWDELHI_WIND NEWDELHI_PRES NEWDELHI_CI NEWDELHI_DP NEWDELHI_POCI REUNION_LAT REUNION_LON REUNION_TYPE REUNION_WIND REUNION_PRES REUNION_TNUM REUNION_CI REUNION_RMW REUNION_R34_NE REUNION_R34_SE REUNION_R34_SW REUNION_R34_NW REUNION_R50_NE REUNION_R50_SE REUNION_R50_SW REUNION_R50_NW REUNION_R64_NE REUNION_R64_SE REUNION_R64_SW REUNION_R64_NW BOM_LAT BOM_LON BOM_TYPE BOM_WIND BOM_PRES BOM_TNUM BOM_CI BOM_RMW BOM_R34_NE BOM_R34_SE BOM_R34_SW BOM_R34_NW BOM_R50_NE BOM_R50_SE BOM_R50_SW BOM_R50_NW BOM_R64_NE BOM_R64_SE BOM_R64_SW BOM_R64_NW BOM_ROCI BOM_POCI BOM_EYE BOM_POS_METHOD BOM_PRES_METHOD NADI_LAT NADI_LON NADI_CAT NADI_WIND NADI_PRES WELLINGTON_LAT WELLINGTON_LON WELLINGTON_WIND WELLINGTON_PRES DS824_LAT DS824_LON DS824_STAGE DS824_WIND DS824_PRES TD9636_LAT TD9636_LON TD9636_STAGE TD9636_WIND TD9636_PRES TD9635_LAT TD9635_LON TD9635_WIND TD9635_PRES TD9635_ROCI NEUMANN_LAT NEUMANN_LON NEUMANN_CLASS NEUMANN_WIND NEUMANN_PRES MLC_LAT MLC_LON MLC_CLASS MLC_WIND MLC_PRES USA_GUST BOM_GUST BOM_GUST_PER REUNION_GUST REUNION_GUST_PER USA_SEAHGT USA_SEARAD_NE USA_SEARAD_SE USA_SEARAD_SW USA_SEARAD_NW STORM_SPEED STORM_DIR
1981262N16256 1981 83 EP MM KNUT 1981-09-19 00:00:00 TS 15.5000 -104.500 30 hurdat_epa main 330 330 O_________O___ hurdat_epa EP111981 15.5000 -104.500 TD 30 -1 15.5000 -104.500 1 30 15 281
1981262N16256 1981 83 EP MM KNUT 1981-09-19 03:00:00 TS 15.6448 -105.258 main 357 348 P_________P___ EP111981 15.6581 -105.260 TD 32 -1 15.6051 -105.253 1 33 15 281
1981262N16256 1981 83 EP MM KNUT 1981-09-19 06:00:00 TS 15.7818 -105.999 35 hurdat_epa main 385 385 O_________P___ hurdat_epa EP111981 15.8000 -106.000 TS 35 0 15.7271 -105.995 1 37 14 281
1981262N16256 1981 83 EP MM KNUT 1981-09-19 09:00:00 TS 15.9168 -106.710 main 420 420 P_________P___ EP111981 15.9272 -106.708 TS 40 0 15.8855 -106.715 1 41 14 283
1981262N16256 1981 83 EP MM KNUT 1981-09-19 12:00:00 TS 16.1000 -107.400 45 hurdat_epa main 442 442 O_________O___ hurdat_epa EP111981 16.1000 -107.400 TS 45 0 16.1000 -107.400 2 45 14 288
1981262N16256 1981 83 EP MM KNUT 1981-09-19 15:00:00 TS 16.3628 -108.124 main 469 469 P_________P___ EP111981 16.3552 -108.152 TS 47 0 16.3855 -108.039 2 46 14 295
1981262N16256 1981 83 EP MM KNUT 1981-09-19 18:00:00 TS 16.7093 -108.754 50 hurdat_epa main 499 491 O_________P___ hurdat_epa EP111981 16.7000 -108.800 TS 50 0 16.7372 -108.614 2 47 13 307
1981262N16256 1981 83 EP MM KNUT 1981-09-19 21:00:00 TS 17.1261 -109.196 main 503 496 P_________P___ EP111981 17.1197 -109.225 TS 50 0 17.1452 -109.107 2 48 11 321
1981262N16256 1981 83 EP MM KNUT 1981-09-20 00:00:00 TS 17.6000 -109.500 50 hurdat_epa main 499 489 O_________O___ hurdat_epa EP111981 17.6000 -109.500 TS 50 0 17.6000 -109.500 2 50 11 331
1981262N16256 1981 83 EP MM KNUT 1981-09-20 03:00:00 TS 18.0860 -109.757 main 499 480 P_________P___ EP111981 18.0849 -109.730 TS 52 0 18.0892 -109.836 2 51 11 337
1981262N16256 1981 83 EP MM KNUT 1981-09-20 06:00:00 TS 18.6048 -109.942 55 hurdat_epa main 480 425 O_________P___ hurdat_epa EP111981 18.6000 -109.900 TS 55 0 18.6190 -110.067 2 52 11 344
1981262N16256 1981 83 EP MM KNUT 1981-09-20 09:00:00 TS 19.1479 -110.085 main 425 358 P_________P___ EP111981 19.1424 -110.050 TS 55 0 19.1644 -110.189 2 53 11 347
1981262N16256 1981 83 EP MM KNUT 1981-09-20 12:00:00 TS 19.7000 -110.200 55 hurdat_epa main 358 304 O_________O___ hurdat_epa EP111981 19.7000 -110.200 TS 55 0 19.7000 -110.200 2 55 12 344
1981262N16256 1981 83 EP MM KNUT 1981-09-20 15:00:00 TS 20.2534 -110.427 main 293 251 P_________P___ EP111981 20.2723 -110.511 TS 55 0 20.1967 -110.173 2 53 11 347
1981262N16256 1981 83 EP MM KNUT 1981-09-20 18:00:00 TS 20.7697 -110.458 55 hurdat_epa main 240 190 O_________P___ hurdat_epa EP111981 20.8000 -110.600 TS 55 0 20.6786 -110.032 2 52 10 21
1981262N16256 1981 83 EP MM KNUT 1981-09-20 21:00:00 TS 21.1981 -110.040 main 190 148 P_________P___ EP111981 21.2154 -110.128 TS 52 0 21.1464 -109.775 2 51 13 50
1981262N16256 1981 83 EP MM KNUT 1981-09-21 00:00:00 TS 21.6000 -109.400 50 hurdat_epa main 151 136 O_________O___ hurdat_epa EP111981 21.6000 -109.400 TS 50 0 21.6000 -109.400 2 50 14 54
1981262N16256 1981 83 EP MM KNUT 1981-09-21 03:00:00 TS 22.0475 -108.784 main 143 143 P_________P___ EP111981 22.0500 -108.743 TS 47 0 22.0400 -108.909 2 47 15 52
1981262N16256 1981 83 EP MM KNUT 1981-09-21 06:00:00 TS 22.4932 -108.148 45 hurdat_epa main 163 120 O_________P___ hurdat_epa EP111981 22.5000 -108.100 TS 45 0 22.4682 -108.326 2 45 14 53
1981262N16256 1981 83 EP MM KNUT 1981-09-21 09:00:00 TS 22.9048 -107.558 main 120 45 P_________P___ EP111981 22.9071 -107.534 TS 42 0 22.8873 -107.680 2 42 13 53
1981262N16256 1981 83 EP MM KNUT 1981-09-21 12:00:00 TS 23.3000 -107.000 40 hurdat_epa main 45 0 O_________O___ hurdat_epa EP111981 23.3000 -107.000 TS 40 0 23.3000 -107.000 2 40 13 52
1981262N16256 1981 83 EP MM KNUT 1981-09-21 15:00:00 TS 23.6980 -106.456 main 0 0 P_____________ EP111981 23.6980 -106.456 TS 35 0 2 13 52
1981262N16256 1981 83 EP MM KNUT 1981-09-21 18:00:00 ET 24.1000 -105.900 30 hurdat_epa main 0 O_____________ hurdat_epa EP111981 24.1000 -105.900 ET 30 -4 2 13 52

About IBTrACS Database

This database is a web-friendly format of International Best Track Archive for Climate Stewardship (IBTrACS), a global best track data archive curated by NOAA dating back to 1842.

Updated: 2021-10-21